createdAt,value
2023-05-02T00:02:00.252Z,14.61
2023-05-02T00:04:28.691Z,14.70
2023-05-02T00:06:58.534Z,14.81
2023-05-02T00:09:27.042Z,14.84
2023-05-02T00:11:55.033Z,14.95
2023-05-02T00:14:23.280Z,14.87
2023-05-02T00:16:51.381Z,14.75
2023-05-02T00:19:19.726Z,14.68
2023-05-02T00:21:48.829Z,14.65
2023-05-02T00:24:18.647Z,14.61
2023-05-02T00:26:46.849Z,14.58
2023-05-02T00:29:15.636Z,14.49
2023-05-02T00:31:44.327Z,14.47
2023-05-02T00:34:12.706Z,14.41
2023-05-02T00:36:40.720Z,14.37
2023-05-02T00:39:09.003Z,14.29
2023-05-02T00:41:38.383Z,14.40
2023-05-02T00:44:07.109Z,14.25
2023-05-02T00:46:35.563Z,14.25
2023-05-02T00:49:04.064Z,14.21
2023-05-02T00:51:34.132Z,14.21
2023-05-02T00:54:02.769Z,14.14
2023-05-02T00:56:31.042Z,14.27
2023-05-02T00:59:01.442Z,14.15
2023-05-02T01:01:36.742Z,14.00
2023-05-02T01:04:13.165Z,14.02
2023-05-02T01:06:49.657Z,13.90
2023-05-02T01:09:40.847Z,13.88
2023-05-02T01:12:17.131Z,13.92
2023-05-02T01:14:51.870Z,13.87
2023-05-02T01:17:21.316Z,13.78
2023-05-02T01:19:54.147Z,13.66
2023-05-02T01:22:23.095Z,13.56
2023-05-02T01:24:58.251Z,13.52
2023-05-02T01:27:37.282Z,13.43
2023-05-02T01:30:08.427Z,13.37
2023-05-02T01:32:38.603Z,13.36
2023-05-02T01:35:08.188Z,13.31
2023-05-02T01:37:38.135Z,13.27
2023-05-02T01:40:09.216Z,13.18
2023-05-02T01:42:37.970Z,13.14
2023-05-02T01:45:09.533Z,13.13
2023-05-02T01:47:38.971Z,13.07
2023-05-02T01:50:09.324Z,13.00
2023-05-02T01:52:38.387Z,13.01
2023-05-02T01:55:08.340Z,12.91
2023-05-02T01:57:37.841Z,12.85
2023-05-02T02:00:09.505Z,12.81
2023-05-02T02:02:45.081Z,12.91
2023-05-02T02:05:16.703Z,12.84
2023-05-02T02:07:44.915Z,12.78
2023-05-02T02:10:13.415Z,12.72
2023-05-02T02:12:44.006Z,12.68
2023-05-02T02:15:19.369Z,12.59
2023-05-02T02:17:49.532Z,12.64
2023-05-02T02:20:18.480Z,12.60
2023-05-02T02:22:46.963Z,12.60
2023-05-02T02:25:17.363Z,12.58
2023-05-02T02:27:45.710Z,12.78
2023-05-02T02:30:16.433Z,12.62
2023-05-02T02:32:44.501Z,12.80
2023-05-02T02:35:12.914Z,12.61
2023-05-02T02:37:43.156Z,12.51
2023-05-02T02:40:18.299Z,12.37
2023-05-02T02:42:51.499Z,12.44
2023-05-02T02:45:28.489Z,12.42
2023-05-02T02:48:04.452Z,12.41
2023-05-02T02:50:37.693Z,12.37
2023-05-02T02:53:08.526Z,12.38
2023-05-02T02:55:41.891Z,12.29
2023-05-02T02:58:20.619Z,12.25
2023-05-02T03:00:50.758Z,12.19
2023-05-02T03:03:19.526Z,12.40
2023-05-02T03:05:48.245Z,12.41
2023-05-02T03:08:16.652Z,12.64
2023-05-02T03:10:45.147Z,12.65
2023-05-02T03:13:13.692Z,12.53
2023-05-02T03:16:17.836Z,12.48
2023-05-02T03:18:47.352Z,12.32
2023-05-02T03:21:15.768Z,12.38
2023-05-02T03:23:44.354Z,12.22
2023-05-02T03:26:12.724Z,12.07
2023-05-02T03:28:42.002Z,12.01
2023-05-02T03:31:10.343Z,11.98
2023-05-02T03:33:40.900Z,11.98
2023-05-02T03:36:11.057Z,11.98
2023-05-02T03:38:39.992Z,11.95
2023-05-02T03:41:11.808Z,11.91
2023-05-02T03:43:39.999Z,11.86
2023-05-02T03:46:11.498Z,11.95
2023-05-02T03:48:45.541Z,11.87
2023-05-02T03:51:15.351Z,11.85
2023-05-02T03:53:47.137Z,11.84
2023-05-02T03:56:19.990Z,11.76
2023-05-02T03:58:54.966Z,11.78
2023-05-02T04:01:26.536Z,11.76
2023-05-02T04:03:55.978Z,11.82
2023-05-02T04:06:28.150Z,11.78
2023-05-02T04:09:00.426Z,11.78
2023-05-02T04:11:35.069Z,11.70
2023-05-02T04:14:04.870Z,11.72
2023-05-02T04:16:33.762Z,11.77
2023-05-02T04:19:01.906Z,11.75
2023-05-02T04:21:32.220Z,11.74
2023-05-02T04:24:00.554Z,11.87
2023-05-02T04:26:29.988Z,11.96
2023-05-02T04:29:05.242Z,11.86
2023-05-02T04:31:33.858Z,11.80
2023-05-02T04:34:02.099Z,11.95
2023-05-02T04:36:37.323Z,11.77
2023-05-02T04:39:07.677Z,11.93
2023-05-02T04:41:38.138Z,11.99
2023-05-02T04:44:08.234Z,11.91
2023-05-02T04:46:38.197Z,11.89
2023-05-02T04:49:06.462Z,11.94
2023-05-02T04:51:34.723Z,11.97
2023-05-02T04:54:04.369Z,12.04
2023-05-02T04:56:33.121Z,11.93
2023-05-02T04:59:01.125Z,11.75
2023-05-02T05:01:29.785Z,11.72
2023-05-02T05:03:58.770Z,11.74
2023-05-02T05:06:27.280Z,11.69
2023-05-02T05:08:56.635Z,11.74
2023-05-02T05:11:26.543Z,11.80
2023-05-02T05:13:54.879Z,11.77
2023-05-02T05:16:24.478Z,11.79
2023-05-02T05:18:53.915Z,11.76
2023-05-02T05:21:22.248Z,11.80
2023-05-02T05:23:51.207Z,11.84
2023-05-02T05:26:27.144Z,11.92
2023-05-02T05:28:56.130Z,11.85
2023-05-02T05:31:27.319Z,11.86
2023-05-02T05:33:58.509Z,11.95
2023-05-02T05:36:28.015Z,11.98
2023-05-02T05:38:56.557Z,12.02
2023-05-02T05:41:25.630Z,12.12
2023-05-02T05:44:02.089Z,12.20
2023-05-02T05:46:31.526Z,12.29
2023-05-02T05:49:01.501Z,12.28
2023-05-02T05:51:31.429Z,12.36
2023-05-02T05:54:00.824Z,12.37
2023-05-02T05:56:29.561Z,12.47
2023-05-02T05:59:08.881Z,12.44
2023-05-02T06:01:38.055Z,12.47
2023-05-02T06:04:07.470Z,12.50
2023-05-02T06:06:39.435Z,12.77
2023-05-02T06:09:07.512Z,12.92
2023-05-02T06:11:37.715Z,12.84
2023-05-02T06:14:07.325Z,12.87
2023-05-02T06:16:35.810Z,13.03
2023-05-02T06:19:03.987Z,13.25
2023-05-02T06:21:32.367Z,13.33
2023-05-02T06:24:00.389Z,13.51
2023-05-02T06:26:28.789Z,13.49
2023-05-02T06:28:57.240Z,13.63
2023-05-02T06:31:26.978Z,13.68
2023-05-02T06:33:55.542Z,13.75
2023-05-02T06:36:23.820Z,13.92
2023-05-02T06:38:51.797Z,13.85
2023-05-02T06:41:20.637Z,13.91
2023-05-02T06:43:48.830Z,13.85
2023-05-02T06:46:17.405Z,13.94
2023-05-02T06:48:46.857Z,14.08
2023-05-02T06:51:15.708Z,14.20
2023-05-02T06:53:43.710Z,14.26
2023-05-02T06:56:12.030Z,14.18
2023-05-02T06:58:40.037Z,14.25
2023-05-02T07:01:08.272Z,14.40
2023-05-02T07:03:36.429Z,14.43
2023-05-02T07:06:06.153Z,14.37
2023-05-02T07:08:34.276Z,14.54
2023-05-02T07:11:03.113Z,14.57
2023-05-02T07:13:31.124Z,14.66
2023-05-02T07:15:59.408Z,14.84
2023-05-02T07:18:27.418Z,15.12
2023-05-02T07:20:56.225Z,15.02
2023-05-02T07:23:25.919Z,15.30
2023-05-02T07:25:54.233Z,15.23
2023-05-02T07:28:22.216Z,15.09
2023-05-02T07:30:50.630Z,14.99
2023-05-02T07:33:18.683Z,14.93
2023-05-02T07:35:47.314Z,14.72
2023-05-02T07:38:15.383Z,14.75
2023-05-02T07:40:46.366Z,14.70
2023-05-02T07:43:15.887Z,14.66
2023-05-02T07:45:44.245Z,14.57
2023-05-02T07:48:12.371Z,14.51
2023-05-02T07:50:40.786Z,14.44
2023-05-02T07:53:08.883Z,14.57
2023-05-02T07:55:37.091Z,14.46
2023-05-02T07:58:06.504Z,14.45
2023-05-02T08:00:34.802Z,14.62
2023-05-02T08:03:03.053Z,14.58
2023-05-02T08:05:31.974Z,14.78
2023-05-02T08:08:01.876Z,14.94
2023-05-02T08:10:30.287Z,14.98
2023-05-02T08:12:58.357Z,15.00
2023-05-02T08:15:28.060Z,15.01
2023-05-02T08:17:56.154Z,15.24
2023-05-02T08:20:24.503Z,15.40
2023-05-02T08:22:52.476Z,15.38
2023-05-02T08:25:20.849Z,15.60
2023-05-02T08:27:48.937Z,15.83
2023-05-02T08:30:17.328Z,15.88
2023-05-02T08:32:47.062Z,15.97
2023-05-02T08:35:15.588Z,16.24
2023-05-02T08:37:43.575Z,16.36
2023-05-02T08:40:13.562Z,16.48
2023-05-02T08:42:43.567Z,16.48
2023-05-02T08:45:14.879Z,16.42
2023-05-02T08:47:47.185Z,16.42
2023-05-02T08:50:16.956Z,16.16
2023-05-02T08:52:45.584Z,16.12
2023-05-02T08:55:14.545Z,16.01
2023-05-02T08:57:44.601Z,16.03
2023-05-02T09:00:14.112Z,16.19
2023-05-02T09:02:56.405Z,16.29
2023-05-02T09:05:25.806Z,16.39
2023-05-02T09:07:53.814Z,16.51
2023-05-02T09:10:22.666Z,16.24
2023-05-02T09:12:50.686Z,16.17
2023-05-02T09:15:21.168Z,15.98
2023-05-02T09:17:51.021Z,15.90
2023-05-02T09:20:19.369Z,16.05
2023-05-02T09:22:51.193Z,16.16
2023-05-02T09:25:20.555Z,16.26
2023-05-02T09:27:53.142Z,16.21
2023-05-02T09:30:23.968Z,16.11
2023-05-02T09:32:55.669Z,16.13
2023-05-02T09:35:24.696Z,16.15
2023-05-02T09:37:53.769Z,16.15
2023-05-02T09:40:23.157Z,16.27
2023-05-02T09:42:51.386Z,16.32
2023-05-02T09:45:21.851Z,16.49
2023-05-02T09:47:50.286Z,16.50
2023-05-02T09:50:35.520Z,16.51
2023-05-02T09:53:05.228Z,16.57
2023-05-02T09:55:33.715Z,16.58
2023-05-02T09:58:02.147Z,16.64
2023-05-02T10:00:40.635Z,16.52
2023-05-02T10:03:09.200Z,16.66
2023-05-02T10:05:40.436Z,16.69
2023-05-02T10:08:10.056Z,16.58
2023-05-02T10:10:40.523Z,16.48
2023-05-02T10:13:09.505Z,16.46
2023-05-02T10:15:40.008Z,16.29
2023-05-02T10:18:14.389Z,16.21
2023-05-02T10:20:50.161Z,16.16
2023-05-02T10:23:18.465Z,16.01
2023-05-02T10:25:47.013Z,15.96
2023-05-02T10:28:15.749Z,15.91
2023-05-02T10:30:44.493Z,15.91
2023-05-02T10:33:15.049Z,15.91
2023-05-02T10:35:46.878Z,15.86
2023-05-02T10:38:19.097Z,15.79
2023-05-02T10:40:56.017Z,15.82
2023-05-02T10:43:29.330Z,15.76
2023-05-02T10:45:57.725Z,15.77
2023-05-02T10:48:26.737Z,15.81
2023-05-02T10:50:57.782Z,15.92
2023-05-02T10:53:31.412Z,15.96
2023-05-02T10:56:10.823Z,16.22
2023-05-02T10:58:38.884Z,16.49
2023-05-02T11:01:36.911Z,16.62
2023-05-02T11:04:06.705Z,16.79
2023-05-02T11:06:37.703Z,16.94
2023-05-02T11:09:34.451Z,17.29
2023-05-02T11:12:04.865Z,17.50
2023-05-02T11:14:52.409Z,17.70
2023-05-02T11:17:21.511Z,17.63
2023-05-02T11:20:26.926Z,17.43
2023-05-02T11:23:00.860Z,17.37
2023-05-02T11:25:40.005Z,17.39
2023-05-02T11:28:10.066Z,17.48
2023-05-02T11:30:43.741Z,17.62
2023-05-02T11:33:16.015Z,17.75
2023-05-02T11:35:46.676Z,17.92
2023-05-02T11:38:18.065Z,18.04
2023-05-02T11:40:56.931Z,18.19
2023-05-02T11:43:28.227Z,18.28
2023-05-02T11:45:59.732Z,18.37
2023-05-02T11:48:28.542Z,18.29
2023-05-02T11:50:58.297Z,18.28
2023-05-02T11:53:30.124Z,18.32
2023-05-02T11:55:59.177Z,18.35
2023-05-02T11:58:29.817Z,18.46
2023-05-02T12:00:58.192Z,18.44
2023-05-02T12:03:30.306Z,18.52
2023-05-02T12:05:59.996Z,18.68
2023-05-02T12:08:31.304Z,18.81
2023-05-02T12:10:59.375Z,18.86
2023-05-02T12:13:27.936Z,18.86
2023-05-02T12:15:56.712Z,19.07
2023-05-02T12:18:26.980Z,19.30
2023-05-02T12:20:56.349Z,19.51
2023-05-02T12:23:26.179Z,19.73
2023-05-02T12:25:55.696Z,19.73
2023-05-02T12:28:24.307Z,19.78
2023-05-02T12:30:52.724Z,19.50
2023-05-02T12:33:21.350Z,19.57
2023-05-02T12:35:49.595Z,19.51
2023-05-02T12:38:20.294Z,19.25
2023-05-02T12:40:50.413Z,19.23
2023-05-02T12:43:20.541Z,19.04
2023-05-02T12:45:49.556Z,19.15
2023-05-02T12:48:22.803Z,19.18
2023-05-02T12:50:51.699Z,19.27
2023-05-02T12:53:41.595Z,19.19
2023-05-02T12:56:10.388Z,19.13
2023-05-02T12:58:44.417Z,19.11
2023-05-02T13:01:13.239Z,19.22
2023-05-02T13:03:42.571Z,19.33
2023-05-02T13:06:11.157Z,19.51
2023-05-02T13:08:39.750Z,19.76
2023-05-02T13:11:07.902Z,19.97
2023-05-02T13:13:36.224Z,20.03
2023-05-02T13:16:06.094Z,20.28
2023-05-02T13:18:34.527Z,20.29
2023-05-02T13:21:02.582Z,20.31
2023-05-02T13:23:30.866Z,20.39
2023-05-02T13:25:58.968Z,20.62
2023-05-02T13:28:27.800Z,20.54
2023-05-02T13:30:56.013Z,20.60
2023-05-02T13:33:25.681Z,20.61
2023-05-02T13:35:53.748Z,20.63
2023-05-02T13:38:22.383Z,20.76
2023-05-02T13:40:51.413Z,20.67
2023-05-02T13:43:19.680Z,20.50
2023-05-02T13:45:48.829Z,20.41
2023-05-02T13:48:17.663Z,20.25
2023-05-02T13:50:47.170Z,20.64
2023-05-02T13:53:16.175Z,20.90
2023-05-02T13:55:44.444Z,20.91
2023-05-02T13:58:12.730Z,20.97
2023-05-02T14:00:40.808Z,21.22
2023-05-02T14:03:11.121Z,21.32
2023-05-02T14:05:42.526Z,22.00
2023-05-02T14:08:12.837Z,21.82
2023-05-02T14:10:40.892Z,22.38
2023-05-02T14:13:09.171Z,21.95
2023-05-02T14:15:38.050Z,22.08
2023-05-02T14:18:06.442Z,22.36
2023-05-02T14:20:34.498Z,22.34
2023-05-02T14:23:03.203Z,23.28
2023-05-02T14:25:33.681Z,24.05
2023-05-02T14:28:02.794Z,25.93
2023-05-02T14:30:31.286Z,25.73
2023-05-02T14:32:59.668Z,24.94
2023-05-02T14:35:27.743Z,25.08
2023-05-02T14:37:56.068Z,26.14
2023-05-02T14:40:24.126Z,26.16
2023-05-02T14:42:53.876Z,25.93
2023-05-02T14:45:22.379Z,26.07
2023-05-02T14:47:51.286Z,25.61
2023-05-02T14:50:19.585Z,26.07
2023-05-02T14:52:48.031Z,26.35
2023-05-02T14:55:16.114Z,25.95
2023-05-02T14:57:44.493Z,26.61
2023-05-02T15:00:15.996Z,27.23
2023-05-02T15:02:44.839Z,27.00
2023-05-02T15:05:13.219Z,27.28
2023-05-02T15:07:41.810Z,27.02
2023-05-02T15:10:10.342Z,26.99
2023-05-02T15:12:38.756Z,26.80
2023-05-02T15:15:09.165Z,27.49
2023-05-02T15:17:39.680Z,29.19
2023-05-02T15:20:08.911Z,29.70
2023-05-02T15:22:37.101Z,31.05
2023-05-02T15:25:05.871Z,31.92
2023-05-02T15:27:34.275Z,31.98
2023-05-02T15:30:03.592Z,31.46
2023-05-02T15:32:32.252Z,31.60
2023-05-02T15:35:01.672Z,30.50
2023-05-02T15:37:30.244Z,30.42
2023-05-02T15:39:59.871Z,30.45
2023-05-02T15:42:28.392Z,30.77
2023-05-02T15:44:56.407Z,30.25
2023-05-02T15:47:25.045Z,30.99
2023-05-02T15:49:54.900Z,30.44
2023-05-02T15:52:24.620Z,30.87
2023-05-02T15:54:52.789Z,30.86
2023-05-02T15:57:21.340Z,31.25
2023-05-02T15:59:49.453Z,30.47
2023-05-02T16:02:17.734Z,30.58
2023-05-02T16:04:46.471Z,30.64
2023-05-02T16:07:14.831Z,31.26
2023-05-02T16:09:44.204Z,31.46
2023-05-02T16:12:13.622Z,32.01
2023-05-02T16:14:41.656Z,32.38
2023-05-02T16:17:09.913Z,32.49
2023-05-02T16:19:37.982Z,31.88
2023-05-02T16:22:06.413Z,31.86
2023-05-02T16:24:34.484Z,30.84
2023-05-02T16:27:04.717Z,30.01
2023-05-02T16:29:32.718Z,30.27
2023-05-02T16:32:01.007Z,29.90
2023-05-02T16:34:32.344Z,30.09
2023-05-02T16:37:02.572Z,29.60
2023-05-02T16:39:31.876Z,29.44
2023-05-02T16:42:00.300Z,29.21
2023-05-02T16:44:30.264Z,29.98
2023-05-02T16:46:58.755Z,30.11
2023-05-02T16:49:26.909Z,29.56
2023-05-02T16:51:56.012Z,29.79
2023-05-02T16:54:24.103Z,29.65
2023-05-02T16:56:52.353Z,30.45
2023-05-02T16:59:20.477Z,30.78
2023-05-02T17:01:50.203Z,30.53
2023-05-02T17:04:18.326Z,30.21
2023-05-02T17:06:47.626Z,30.25
2023-05-02T17:09:16.221Z,29.83
2023-05-02T17:11:44.479Z,29.27
2023-05-02T17:14:13.737Z,28.92
2023-05-02T17:16:42.141Z,28.90
2023-05-02T17:19:11.572Z,28.51
2023-05-02T17:21:39.896Z,28.43
2023-05-02T17:24:08.192Z,28.23
2023-05-02T17:26:36.610Z,28.27
2023-05-02T17:29:04.723Z,27.96
2023-05-02T17:31:33.140Z,27.29
2023-05-02T17:34:01.292Z,26.82
2023-05-02T17:36:32.631Z,26.29
2023-05-02T17:39:00.811Z,25.64
2023-05-02T17:41:29.094Z,25.26
2023-05-02T17:43:57.126Z,25.10
2023-05-02T17:46:25.790Z,24.53
2023-05-02T17:48:53.899Z,24.16
2023-05-02T17:51:22.126Z,24.01
2023-05-02T17:53:52.923Z,23.85
2023-05-02T17:56:21.279Z,23.32
2023-05-02T17:58:49.336Z,22.79
2023-05-02T18:01:17.766Z,22.54
2023-05-02T18:03:47.453Z,22.18
2023-05-02T18:06:16.699Z,22.04
2023-05-02T18:08:45.111Z,21.88
2023-05-02T18:11:18.999Z,21.64
2023-05-02T18:13:48.412Z,21.43
2023-05-02T18:16:17.020Z,21.04
2023-05-02T18:18:45.291Z,20.77
2023-05-02T18:21:21.724Z,20.37
2023-05-02T18:23:49.864Z,20.00
2023-05-02T18:26:19.422Z,19.58
2023-05-02T18:28:52.983Z,19.40
2023-05-02T18:31:21.680Z,18.91
2023-05-02T18:33:49.789Z,18.37
2023-05-02T18:36:20.616Z,18.27
2023-05-02T18:38:48.726Z,18.16
2023-05-02T18:41:18.190Z,17.98
2023-05-02T18:43:47.655Z,17.79
2023-05-02T18:46:16.126Z,17.70
2023-05-02T18:48:44.298Z,17.55
2023-05-02T18:51:12.624Z,17.35
2023-05-02T18:53:40.851Z,17.30
2023-05-02T18:56:14.251Z,17.21
2023-05-02T18:58:42.360Z,17.06
2023-05-02T19:01:15.843Z,16.87
2023-05-02T19:03:44.381Z,16.81
2023-05-02T19:06:12.965Z,16.72
2023-05-02T19:08:41.402Z,16.64
2023-05-02T19:11:09.657Z,16.46
2023-05-02T19:13:38.624Z,16.45
2023-05-02T19:16:10.513Z,16.33
2023-05-02T19:18:40.401Z,16.27
2023-05-02T19:21:12.625Z,16.20
2023-05-02T19:23:41.871Z,16.21
2023-05-02T19:26:13.763Z,16.14
2023-05-02T19:28:42.064Z,16.23
2023-05-02T19:31:11.590Z,16.19
2023-05-02T19:33:43.598Z,16.08
2023-05-02T19:36:11.904Z,15.96
2023-05-02T19:38:41.568Z,15.95
2023-05-02T19:41:10.032Z,15.82
2023-05-02T19:43:38.040Z,15.70
2023-05-02T19:46:06.674Z,15.68
2023-05-02T19:48:34.888Z,15.70
2023-05-02T19:51:05.611Z,15.66
2023-05-02T19:53:35.316Z,15.58
2023-05-02T19:56:04.846Z,15.43
2023-05-02T19:58:32.920Z,15.39
2023-05-02T20:01:01.486Z,15.21
2023-05-02T20:03:31.334Z,15.22
2023-05-02T20:05:59.904Z,15.22
2023-05-02T20:08:31.298Z,15.19
2023-05-02T20:10:59.580Z,14.98
2023-05-02T20:13:28.064Z,14.93
2023-05-02T20:15:56.581Z,14.92
2023-05-02T20:18:24.661Z,14.83
2023-05-02T20:20:53.088Z,14.71
2023-05-02T20:23:21.149Z,14.62
2023-05-02T20:25:51.020Z,14.56
2023-05-02T20:28:19.105Z,14.60
2023-05-02T20:30:47.378Z,14.61
2023-05-02T20:33:16.650Z,14.57
2023-05-02T20:35:46.161Z,14.49
2023-05-02T20:38:17.619Z,14.45
2023-05-02T20:40:45.894Z,14.51
2023-05-02T20:43:18.750Z,14.36
2023-05-02T20:45:47.269Z,14.38
2023-05-02T20:48:17.040Z,14.39
2023-05-02T20:50:52.812Z,14.47
2023-05-02T20:53:23.614Z,14.46
2023-05-02T20:55:52.315Z,14.40
2023-05-02T20:58:21.979Z,14.44
2023-05-02T21:00:52.424Z,14.32
2023-05-02T21:03:21.151Z,14.34
2023-05-02T21:05:53.310Z,14.25
2023-05-02T21:08:21.696Z,14.12
2023-05-02T21:10:49.978Z,14.07
2023-05-02T21:13:18.121Z,14.02
2023-05-02T21:15:47.699Z,13.92
2023-05-02T21:18:15.865Z,13.78
2023-05-02T21:20:44.304Z,13.78
2023-05-02T21:23:12.346Z,13.76
2023-05-02T21:25:40.573Z,13.73
2023-05-02T21:28:08.742Z,13.68
2023-05-02T21:30:37.017Z,13.58
2023-05-02T21:33:06.452Z,13.40
2023-05-02T21:35:34.809Z,13.52
2023-05-02T21:38:02.764Z,13.54
2023-05-02T21:40:31.766Z,13.36
2023-05-02T21:42:59.760Z,13.32
2023-05-02T21:45:29.712Z,13.35
2023-05-02T21:47:57.853Z,13.39
2023-05-02T21:50:29.274Z,13.30
2023-05-02T21:52:57.325Z,13.22
2023-05-02T21:55:25.714Z,13.04
2023-05-02T21:57:53.704Z,13.11
2023-05-02T22:00:22.687Z,13.07
2023-05-02T22:02:51.017Z,13.02
2023-05-02T22:05:19.450Z,12.89
2023-05-02T22:07:49.419Z,12.76
2023-05-02T22:10:18.018Z,12.75
2023-05-02T22:12:46.598Z,12.77
2023-05-02T22:15:15.400Z,12.58
2023-05-02T22:17:43.556Z,12.57
2023-05-02T22:20:13.171Z,12.43
2023-05-02T22:22:41.362Z,12.52
2023-05-02T22:25:11.348Z,12.58
2023-05-02T22:27:39.333Z,12.54
2023-05-02T22:30:09.614Z,12.66
2023-05-02T22:32:37.709Z,12.58
2023-05-02T22:35:06.821Z,12.55
2023-05-02T22:37:34.866Z,12.46
2023-05-02T22:40:03.554Z,12.43
2023-05-02T22:42:33.288Z,12.32
2023-05-02T22:45:01.823Z,12.19
2023-05-02T22:47:30.234Z,12.09
2023-05-02T22:49:59.560Z,12.02
2023-05-02T22:52:28.140Z,11.95
2023-05-02T22:54:57.304Z,11.92
2023-05-02T22:57:25.812Z,11.89
2023-05-02T22:59:55.513Z,11.81
2023-05-02T23:02:23.593Z,11.75
2023-05-02T23:04:51.861Z,11.70
2023-05-02T23:07:19.968Z,11.64
2023-05-02T23:09:48.215Z,11.58
2023-05-02T23:12:16.327Z,11.53
2023-05-02T23:14:45.970Z,11.50
2023-05-02T23:17:15.372Z,11.46
2023-05-02T23:19:43.633Z,11.31
2023-05-02T23:22:11.677Z,11.44
2023-05-02T23:24:39.884Z,11.50
2023-05-02T23:27:08.181Z,11.52
2023-05-02T23:29:36.722Z,11.54
2023-05-02T23:32:07.870Z,11.42
2023-05-02T23:34:37.668Z,11.47
2023-05-02T23:37:06.815Z,11.45
2023-05-02T23:39:35.219Z,11.44
2023-05-02T23:42:04.479Z,11.46
2023-05-02T23:44:32.797Z,11.45
2023-05-02T23:47:01.025Z,11.40
2023-05-02T23:49:29.316Z,11.33
2023-05-02T23:51:58.700Z,11.23
2023-05-02T23:54:26.961Z,11.16
2023-05-02T23:56:54.970Z,11.14
2023-05-02T23:59:23.276Z,11.07
